Time;durP1;ratioP1;P1;durP2;ratioP2;P2;SDS_P1;SDS_P2;PMS_P1;PMS_P2;Temp;Humidity;BMP_temperature;BMP_pressure;BME280_temperature;BME280_humidity;BME280_pressure;Samples;Min_cycle;Max_cycle;Signal;HPM_P1;HPM_P2
2021/12/06 00:01:54;;;;;;;5.93;4.67;;;3.00;99.90;;;;;;6237734;23;20534;-88
2021/12/06 00:04:26;;;;;;;5.40;4.13;;;2.90;99.90;;;;;;6262736;22;20196;-89
2021/12/06 00:06:58;;;;;;;6.47;3.27;;;2.90;99.90;;;;;;6263379;22;20142;-89
2021/12/06 00:09:27;;;;;;;4.93;4.33;;;2.80;99.90;;;;;;6264112;22;20188;-89
2021/12/06 00:11:57;;;;;;;2.83;2.60;;;2.80;99.90;;;;;;6261982;22;20208;-88
2021/12/06 00:14:29;;;;;;;3.13;2.90;;;2.90;99.90;;;;;;6214108;22;20651;-88
2021/12/06 00:16:57;;;;;;;3.13;2.87;;;2.90;99.90;;;;;;6237674;22;20216;-87
2021/12/06 00:19:22;;;;;;;2.90;2.70;;;3.00;99.90;;;;;;6263484;22;20200;-88
2021/12/06 00:21:49;;;;;;;4.70;4.30;;;3.00;99.90;;;;;;6237940;22;20236;-88
2021/12/06 00:24:14;;;;;;;6.73;3.60;;;3.10;99.90;;;;;;6238583;23;20498;-87
2021/12/06 00:26:40;;;;;;;5.37;4.97;;;3.10;99.90;;;;;;6212497;23;20205;-89
2021/12/06 00:29:06;;;;;;;5.37;4.30;;;3.20;99.90;;;;;;6212460;22;20199;-87
2021/12/06 00:31:34;;;;;;;7.60;4.93;;;3.20;99.90;;;;;;6212305;22;20279;-88
2021/12/06 00:34:04;;;;;;;2.97;2.77;;;3.20;99.90;;;;;;6213134;22;20201;-90
2021/12/06 00:36:32;;;;;;;4.77;4.37;;;3.20;99.90;;;;;;6263859;22;20346;-88
2021/12/06 00:39:01;;;;;;;3.13;2.87;;;3.20;99.90;;;;;;6237407;23;20276;-89
2021/12/06 00:41:27;;;;;;;3.80;3.60;;;3.10;99.90;;;;;;6264836;22;20197;-89
2021/12/06 00:43:54;;;;;;;4.37;3.97;;;3.00;99.90;;;;;;6239620;22;20201;-89
2021/12/06 00:46:20;;;;;;;4.30;2.97;;;2.90;99.90;;;;;;6240008;22;20200;-88
2021/12/06 00:48:46;;;;;;;3.30;3.10;;;2.70;99.90;;;;;;6265072;22;20157;-89
2021/12/06 00:51:14;;;;;;;3.73;3.47;;;2.60;99.90;;;;;;6215313;23;20172;-88
2021/12/06 00:53:40;;;;;;;5.03;3.43;;;2.60;99.90;;;;;;6239675;22;20201;-89
2021/12/06 00:56:06;;;;;;;14.33;5.47;;;2.60;99.90;;;;;;6264805;22;20609;-90
2021/12/06 00:58:32;;;;;;;8.40;3.47;;;2.70;99.90;;;;;;6214359;23;20213;-87
2021/12/06 01:00:58;;;;;;;5.67;5.20;;;2.80;99.90;;;;;;6239433;22;20328;-89
2021/12/06 01:03:30;;;;;;;6.67;4.37;;;2.80;99.90;;;;;;6265653;22;20479;-89
2021/12/06 01:05:56;;;;;;;7.27;5.07;;;2.80;99.90;;;;;;6264353;22;20569;-88
2021/12/06 01:08:22;;;;;;;5.23;4.93;;;2.80;99.90;;;;;;6239233;23;20208;-87
2021/12/06 01:10:50;;;;;;;8.77;4.03;;;2.90;99.90;;;;;;6239029;23;20200;-89
2021/12/06 01:13:16;;;;;;;5.70;3.73;;;2.90;99.90;;;;;;6264467;22;20204;-88
2021/12/06 01:15:43;;;;;;;4.17;3.90;;;2.90;99.90;;;;;;6213852;22;20253;-88
2021/12/06 01:18:11;;;;;;;14.47;5.60;;;2.90;99.90;;;;;;6265000;22;20164;-89
2021/12/06 01:20:46;;;;;;;3.43;3.23;;;2.90;99.90;;;;;;6264557;22;20198;-88
2021/12/06 01:23:13;;;;;;;6.10;3.30;;;2.90;99.90;;;;;;6239152;22;20246;-88
2021/12/06 01:33:37;;;;;;;4.50;4.03;;;2.70;99.90;;;;;;6239486;23;20288;-87
2021/12/06 01:39:12;;;;;;;2.90;2.70;;;2.90;99.90;;;;;;6217627;23;20204;-90
2021/12/06 01:41:43;;;;;;;5.30;4.10;;;3.00;99.90;;;;;;6244421;22;20255;-90
2021/12/06 01:44:13;;;;;;;8.17;4.03;;;3.00;99.90;;;;;;6264873;22;20197;-87
2021/12/06 01:46:58;;;;;;;7.83;4.13;;;3.10;99.90;;;;;;6238544;23;20224;-87
2021/12/06 01:49:27;;;;;;;2.90;2.80;;;3.10;99.90;;;;;;6264302;22;20197;-88
2021/12/06 01:51:57;;;;;;;3.40;3.10;;;3.00;99.90;;;;;;6263606;22;20203;-88
2021/12/06 01:54:23;;;;;;;3.43;3.10;;;3.00;99.90;;;;;;6264477;22;20185;-86
2021/12/06 01:56:51;;;;;;;4.80;4.37;;;3.00;99.90;;;;;;6264100;22;20209;-87
2021/12/06 01:59:20;;;;;;;3.17;2.47;;;3.10;99.90;;;;;;6239355;22;20201;-87
2021/12/06 02:01:46;;;;;;;6.07;5.37;;;3.20;99.90;;;;;;6239003;22;20189;-87
2021/12/06 02:04:12;;;;;;;3.57;3.33;;;3.30;99.90;;;;;;6213706;22;20189;-88
2021/12/06 02:06:39;;;;;;;5.70;5.07;;;3.30;99.90;;;;;;6239268;22;20184;-87
2021/12/06 02:09:07;;;;;;;4.53;4.20;;;3.30;99.90;;;;;;6239305;22;20238;-87
2021/12/06 02:11:35;;;;;;;4.87;3.70;;;3.30;99.90;;;;;;6264153;22;20197;-88
2021/12/06 02:14:29;;;;;;;4.43;3.77;;;3.30;99.90;;;;;;6214209;22;20197;-89
2021/12/06 02:17:12;;;;;;;5.60;3.53;;;3.30;99.90;;;;;;6244205;22;20228;-87
2021/12/06 02:19:44;;;;;;;5.70;3.87;;;3.40;99.90;;;;;;6263837;22;20220;-89
2021/12/06 02:22:15;;;;;;;2.90;2.70;;;3.40;99.90;;;;;;6263762;22;20698;-87
2021/12/06 02:24:41;;;;;;;10.17;3.80;;;3.50;99.90;;;;;;6264114;22;20458;-87
2021/12/06 02:27:09;;;;;;;7.47;5.30;;;3.50;99.90;;;;;;6239069;23;20492;-90
2021/12/06 02:29:37;;;;;;;4.33;3.77;;;3.50;99.90;;;;;;6263899;22;20197;-87
2021/12/06 02:32:09;;;;;;;3.17;2.97;;;3.50;99.90;;;;;;6263498;22;20282;-87
2021/12/06 02:34:35;;;;;;;2.97;2.77;;;3.50;99.90;;;;;;6239623;22;20507;-87
2021/12/06 02:37:02;;;;;;;2.37;2.27;;;3.50;99.90;;;;;;6238130;22;20231;-87
2021/12/06 02:39:29;;;;;;;3.13;2.73;;;3.50;99.90;;;;;;6264532;22;20511;-88
2021/12/06 02:41:57;;;;;;;3.43;3.13;;;3.60;99.90;;;;;;6238187;23;20201;-88
2021/12/06 02:44:24;;;;;;;2.70;2.50;;;3.60;99.90;;;;;;6264168;22;20522;-87
2021/12/06 02:46:50;;;;;;;4.77;3.53;;;3.60;99.90;;;;;;6238170;22;20189;-88
2021/12/06 02:49:16;;;;;;;5.87;5.37;;;3.60;99.90;;;;;;6238401;23;20200;-88
2021/12/06 02:51:43;;;;;;;4.87;3.37;;;3.60;99.90;;;;;;6238554;22;20161;-87
2021/12/06 02:54:10;;;;;;;3.63;3.43;;;3.60;99.90;;;;;;6213417;23;20158;-88
2021/12/06 02:56:51;;;;;;;6.50;2.83;;;3.70;99.90;;;;;;6263446;22;20197;-88
2021/12/06 02:59:19;;;;;;;4.63;3.10;;;3.70;99.90;;;;;;6218929;22;20197;-89
2021/12/06 03:01:49;;;;;;;5.07;4.03;;;3.70;99.90;;;;;;6213224;22;20276;-87
2021/12/06 03:04:15;;;;;;;4.73;3.13;;;3.70;99.90;;;;;;6263337;22;20239;-87
2021/12/06 03:06:41;;;;;;;3.93;3.63;;;3.80;99.90;;;;;;6213069;22;20172;-87
2021/12/06 03:09:16;;;;;;;4.13;2.77;;;3.80;99.90;;;;;;6238685;23;20165;-86
2021/12/06 03:11:52;;;;;;;4.57;3.87;;;3.80;99.90;;;;;;6263284;22;20296;-88
2021/12/06 03:14:21;;;;;;;3.97;3.40;;;3.80;99.90;;;;;;6263634;22;20510;-89
2021/12/06 03:16:47;;;;;;;3.63;3.33;;;3.80;99.90;;;;;;6263160;22;20193;-86
2021/12/06 03:19:13;;;;;;;5.07;4.33;;;3.80;99.90;;;;;;6237853;22;20510;-89
2021/12/06 03:21:40;;;;;;;4.00;3.80;;;3.80;99.90;;;;;;6238409;22;20248;-88
2021/12/06 03:24:06;;;;;;;4.67;3.73;;;3.80;99.90;;;;;;6238452;23;20177;-88
2021/12/06 03:26:33;;;;;;;3.57;3.17;;;3.80;99.90;;;;;;6263075;22;20726;-87
2021/12/06 03:28:59;;;;;;;4.70;4.33;;;3.80;99.90;;;;;;6263156;22;20193;-88
2021/12/06 03:31:26;;;;;;;5.60;5.10;;;3.90;99.90;;;;;;6237588;22;20200;-87
2021/12/06 03:33:55;;;;;;;4.00;3.67;;;3.90;99.90;;;;;;6237426;22;20150;-88
2021/12/06 03:36:23;;;;;;;6.10;5.10;;;3.90;99.90;;;;;;6263495;22;20211;-88
2021/12/06 03:38:50;;;;;;;7.20;6.50;;;3.90;99.90;;;;;;6262663;22;20197;-89
2021/12/06 03:41:17;;;;;;;5.37;4.17;;;3.90;99.90;;;;;;6237629;22;20200;-87
2021/12/06 03:43:44;;;;;;;6.00;3.53;;;3.80;99.90;;;;;;6238093;22;20204;-88
2021/12/06 03:46:12;;;;;;;5.10;4.80;;;3.90;99.90;;;;;;6263030;22;20678;-87
2021/12/06 03:48:38;;;;;;;4.73;3.07;;;3.80;99.90;;;;;;6263793;22;20648;-88
2021/12/06 03:51:04;;;;;;;7.93;5.73;;;3.80;99.90;;;;;;6264327;22;20158;-87
2021/12/06 03:53:30;;;;;;;4.83;4.27;;;3.80;99.90;;;;;;6237444;23;20204;-87
2021/12/06 03:55:56;;;;;;;9.43;4.67;;;3.80;99.90;;;;;;6212582;23;20196;-88
2021/12/06 03:58:22;;;;;;;5.77;5.20;;;3.80;99.90;;;;;;6263317;22;20205;-87
2021/12/06 04:00:48;;;;;;;5.63;4.47;;;3.80;99.90;;;;;;6212524;22;20642;-88
2021/12/06 04:03:16;;;;;;;10.37;5.97;;;3.80;99.90;;;;;;6213612;23;20231;-87
2021/12/06 04:05:42;;;;;;;9.57;5.33;;;3.80;99.90;;;;;;6239029;22;20197;-87
2021/12/06 04:08:08;;;;;;;7.60;6.83;;;3.90;99.90;;;;;;6263015;22;20193;-87
2021/12/06 04:10:36;;;;;;;5.63;4.10;;;3.80;99.90;;;;;;6263276;22;20193;-88
2021/12/06 04:13:01;;;;;;;6.07;4.80;;;3.90;99.90;;;;;;6262658;22;20198;-87
2021/12/06 04:15:31;;;;;;;7.47;4.93;;;3.80;99.90;;;;;;6238485;22;20211;-87
2021/12/06 04:17:58;;;;;;;5.77;4.10;;;3.90;99.90;;;;;;6237901;22;20626;-88
2021/12/06 04:20:24;;;;;;;5.60;4.93;;;3.90;99.90;;;;;;6237267;23;20213;-87
2021/12/06 04:22:50;;;;;;;5.17;3.77;;;3.90;99.90;;;;;;6237603;22;20258;-87
2021/12/06 04:25:17;;;;;;;10.80;5.53;;;3.90;99.90;;;;;;6237589;23;20201;-88
2021/12/06 04:27:43;;;;;;;5.03;4.67;;;3.90;99.90;;;;;;6212872;22;20169;-88
2021/12/06 04:30:11;;;;;;;4.20;3.83;;;3.90;99.90;;;;;;6238342;23;20171;-87
2021/12/06 04:32:37;;;;;;;12.13;5.57;;;3.90;99.90;;;;;;6262857;22;20213;-88
2021/12/06 04:35:06;;;;;;;6.57;4.00;;;3.80;99.90;;;;;;6237557;23;20197;-90
2021/12/06 04:37:31;;;;;;;3.53;2.50;;;3.90;99.90;;;;;;6263283;22;20197;-87
2021/12/06 04:39:57;;;;;;;6.57;4.33;;;3.90;99.90;;;;;;6237804;22;20254;-88
2021/12/06 04:42:23;;;;;;;7.13;4.20;;;3.90;99.90;;;;;;6213063;23;20568;-89
2021/12/06 04:44:49;;;;;;;8.40;4.70;;;3.90;99.90;;;;;;6237694;22;20208;-87
2021/12/06 04:47:15;;;;;;;4.77;3.53;;;4.00;99.90;;;;;;6237527;22;20542;-88
2021/12/06 04:49:41;;;;;;;17.57;3.97;;;4.00;99.90;;;;;;6237581;22;20196;-88
2021/12/06 04:52:10;;;;;;;2.93;2.40;;;4.00;99.90;;;;;;6263016;22;20200;-87
2021/12/06 04:54:39;;;;;;;4.43;3.77;;;3.90;99.90;;;;;;6239384;22;20179;-88
2021/12/06 04:57:11;;;;;;;7.87;2.67;;;3.90;99.90;;;;;;6263485;22;20219;-88
2021/12/06 04:59:46;;;;;;;4.03;3.57;;;3.80;99.90;;;;;;6263647;22;20205;-87
2021/12/06 05:02:21;;;;;;;4.77;4.23;;;3.80;99.90;;;;;;6263277;22;20228;-90
2021/12/06 05:04:52;;;;;;;4.03;3.40;;;3.80;99.90;;;;;;6263329;22;20204;-88
2021/12/06 05:07:29;;;;;;;5.50;4.43;;;3.90;99.90;;;;;;6263372;22;20212;-89
2021/12/06 05:09:56;;;;;;;5.30;4.43;;;3.80;99.90;;;;;;6263406;22;20150;-87
2021/12/06 05:12:26;;;;;;;11.57;3.63;;;3.90;99.90;;;;;;6264175;22;20230;-89
2021/12/06 05:14:53;;;;;;;7.57;5.03;;;3.80;99.90;;;;;;6263377;22;20951;-88
2021/12/06 05:17:19;;;;;;;8.00;5.00;;;3.90;99.90;;;;;;6263063;22;20205;-88
2021/12/06 05:19:45;;;;;;;5.80;4.10;;;3.90;99.90;;;;;;6262911;22;20212;-88
2021/12/06 05:22:10;;;;;;;7.23;5.63;;;3.90;99.90;;;;;;6263229;22;20201;-89
2021/12/06 05:24:37;;;;;;;8.50;5.57;;;3.90;99.90;;;;;;6237965;22;20168;-88
2021/12/06 05:27:04;;;;;;;7.03;4.53;;;3.90;99.90;;;;;;6264706;22;20164;-87
2021/12/06 05:29:32;;;;;;;9.53;6.93;;;3.90;99.90;;;;;;6214754;23;20193;-88
2021/12/06 05:31:59;;;;;;;8.17;5.87;;;3.90;99.90;;;;;;6239334;22;20263;-88
2021/12/06 05:34:34;;;;;;;6.30;4.03;;;3.90;99.90;;;;;;6265064;22;20220;-87
2021/12/06 05:37:00;;;;;;;4.70;2.33;;;3.90;99.90;;;;;;6265063;22;20188;-88
2021/12/06 05:39:30;;;;;;;4.30;4.00;;;3.90;99.90;;;;;;6214538;23;20190;-89
2021/12/06 05:42:09;;;;;;;4.83;2.17;;;3.90;99.90;;;;;;6238648;23;20225;-90
2021/12/06 05:44:36;;;;;;;7.33;5.53;;;3.90;99.90;;;;;;6264314;22;20201;-88
2021/12/06 05:47:02;;;;;;;5.50;3.73;;;3.90;99.90;;;;;;6239442;22;20197;-89
2021/12/06 05:49:28;;;;;;;8.33;6.67;;;3.90;99.90;;;;;;6260278;22;20832;-87
2021/12/06 05:51:55;;;;;;;6.27;4.17;;;3.90;99.90;;;;;;6238057;22;20162;-88
2021/12/06 05:54:21;;;;;;;6.20;4.20;;;4.00;99.90;;;;;;6239913;23;20153;-87
2021/12/06 05:56:48;;;;;;;5.10;3.80;;;3.90;99.90;;;;;;6213583;23;20267;-87
2021/12/06 05:59:14;;;;;;;7.43;4.60;;;3.90;99.90;;;;;;6264072;22;20201;-89
2021/12/06 06:01:40;;;;;;;4.87;4.57;;;4.00;99.90;;;;;;6239070;22;20189;-87
2021/12/06 06:04:06;;;;;;;4.97;4.03;;;4.00;99.90;;;;;;6213769;23;20239;-87
2021/12/06 06:06:35;;;;;;;4.00;3.70;;;4.00;99.90;;;;;;6214906;23;20161;-88
2021/12/06 06:09:03;;;;;;;8.93;5.63;;;4.00;99.90;;;;;;6264829;22;20189;-87
2021/12/06 06:11:29;;;;;;;7.53;3.67;;;4.00;99.90;;;;;;6264676;22;20288;-87
2021/12/06 06:13:55;;;;;;;7.20;6.57;;;4.00;99.90;;;;;;6213490;23;20232;-89
2021/12/06 06:16:22;;;;;;;4.53;3.83;;;4.00;99.90;;;;;;6239047;22;20200;-88
2021/12/06 06:18:50;;;;;;;3.70;2.43;;;4.00;99.90;;;;;;6214290;22;20616;-87
2021/12/06 06:21:18;;;;;;;7.33;4.63;;;4.00;99.90;;;;;;6239779;22;20602;-88
2021/12/06 06:23:44;;;;;;;8.93;5.03;;;4.00;99.90;;;;;;6264719;22;21217;-88
2021/12/06 06:26:10;;;;;;;9.10;7.40;;;4.00;99.90;;;;;;6238479;22;20189;-87
2021/12/06 06:28:36;;;;;;;12.10;6.10;;;4.10;99.90;;;;;;6213692;23;20529;-87
2021/12/06 06:31:02;;;;;;;13.13;4.90;;;4.10;99.90;;;;;;6213625;22;20197;-87
2021/12/06 06:33:28;;;;;;;4.23;3.93;;;4.10;99.90;;;;;;6214260;23;20201;-87
2021/12/06 06:35:54;;;;;;;6.50;4.93;;;4.10;99.90;;;;;;6213140;23;20212;-90
2021/12/06 06:38:20;;;;;;;7.47;5.77;;;4.00;99.90;;;;;;6240375;22;20201;-87
2021/12/06 06:40:47;;;;;;;7.80;4.70;;;4.10;99.90;;;;;;6238253;22;20192;-89
2021/12/06 06:43:12;;;;;;;6.03;4.57;;;4.10;99.90;;;;;;6213576;22;20240;-90
2021/12/06 06:45:38;;;;;;;5.67;4.77;;;4.10;99.90;;;;;;6238720;22;20158;-89
2021/12/06 06:48:05;;;;;;;5.13;4.47;;;4.10;99.90;;;;;;6239283;22;20223;-89
2021/12/06 06:50:31;;;;;;;2.27;2.13;;;4.10;99.90;;;;;;6263918;22;20224;-89
2021/12/06 06:52:57;;;;;;;3.50;3.20;;;4.10;99.90;;;;;;6238424;23;20223;-86
2021/12/06 06:55:23;;;;;;;3.97;3.67;;;4.20;99.90;;;;;;6239969;22;20193;-88
2021/12/06 06:57:51;;;;;;;10.97;4.23;;;4.20;99.90;;;;;;6240141;22;20162;-88
2021/12/06 07:00:30;;;;;;;6.97;4.53;;;4.20;99.90;;;;;;6239895;23;20181;-88
2021/12/06 07:02:56;;;;;;;4.87;4.00;;;4.20;99.90;;;;;;6263592;22;20388;-90
2021/12/06 07:05:23;;;;;;;4.47;3.77;;;4.20;99.90;;;;;;6263604;22;20196;-87
2021/12/06 07:07:49;;;;;;;4.33;2.13;;;4.20;99.90;;;;;;6263719;22;20192;-87
2021/12/06 07:10:15;;;;;;;5.07;4.57;;;4.20;99.90;;;;;;6237476;22;20247;-86
2021/12/06 07:12:45;;;;;;;5.47;4.27;;;4.20;99.90;;;;;;6213654;22;20157;-87
2021/12/06 07:15:19;;;;;;;5.43;3.97;;;4.20;99.90;;;;;;6216203;22;20208;-88
2021/12/06 07:17:46;;;;;;;5.63;4.40;;;4.20;99.90;;;;;;6263470;22;20188;-87
2021/12/06 07:20:13;;;;;;;7.50;3.53;;;4.20;99.90;;;;;;6239531;22;20247;-88
2021/12/06 07:22:39;;;;;;;2.10;2.00;;;4.20;99.90;;;;;;6237114;22;20196;-88
2021/12/06 07:25:06;;;;;;;4.37;4.00;;;4.20;99.90;;;;;;6239075;22;20636;-89
2021/12/06 07:27:32;;;;;;;17.83;3.53;;;4.20;99.90;;;;;;6214005;22;20192;-87
2021/12/06 07:29:59;;;;;;;8.83;5.60;;;4.10;99.90;;;;;;6238387;22;20189;-87
2021/12/06 07:32:25;;;;;;;6.83;3.93;;;4.20;99.90;;;;;;6263457;22;20677;-88
2021/12/06 07:34:51;;;;;;;3.60;3.40;;;4.20;99.90;;;;;;6238832;22;20192;-88
2021/12/06 07:37:17;;;;;;;6.57;5.03;;;4.20;99.90;;;;;;6213819;22;20259;-88
2021/12/06 07:39:44;;;;;;;4.37;3.93;;;4.20;99.90;;;;;;6238537;22;20702;-87
2021/12/06 07:42:12;;;;;;;5.20;4.80;;;4.20;99.90;;;;;;6239610;22;20574;-89
2021/12/06 07:44:39;;;;;;;7.97;5.50;;;4.20;99.90;;;;;;6264006;22;20189;-87
2021/12/06 07:47:07;;;;;;;4.77;4.37;;;4.30;99.90;;;;;;6237996;22;20229;-89
2021/12/06 07:49:33;;;;;;;5.47;2.80;;;4.30;99.90;;;;;;6238378;22;20189;-87
2021/12/06 07:51:59;;;;;;;5.57;5.17;;;4.20;99.90;;;;;;6213018;22;20192;-90
2021/12/06 07:54:25;;;;;;;8.77;4.87;;;4.30;99.90;;;;;;6239401;23;20161;-88
2021/12/06 07:56:51;;;;;;;2.53;2.43;;;4.30;99.90;;;;;;6263842;22;20224;-91
2021/12/06 07:59:17;;;;;;;2.97;2.47;;;4.20;99.90;;;;;;6213067;23;20538;-88
2021/12/06 08:01:43;;;;;;;6.40;4.77;;;4.20;99.90;;;;;;6263596;22;20197;-89
2021/12/06 08:04:09;;;;;;;9.40;4.83;;;4.20;99.90;;;;;;6238679;22;20189;-88
2021/12/06 08:06:37;;;;;;;3.53;3.27;;;4.20;99.90;;;;;;6239806;23;20157;-89
2021/12/06 08:09:03;;;;;;;5.93;3.57;;;4.20;99.90;;;;;;6238690;22;20661;-89
2021/12/06 08:11:29;;;;;;;3.50;3.17;;;4.30;99.90;;;;;;6238290;22;20212;-89
2021/12/06 08:13:55;;;;;;;4.50;3.10;;;4.30;99.90;;;;;;6212709;22;20197;-88
2021/12/06 08:16:25;;;;;;;3.33;3.03;;;4.20;99.90;;;;;;6213056;23;20221;-89
2021/12/06 08:18:51;;;;;;;9.07;4.53;;;4.20;99.90;;;;;;6263099;22;20294;-88
2021/12/06 08:21:20;;;;;;;5.90;3.50;;;4.20;99.90;;;;;;6264358;22;20578;-88
2021/12/06 08:23:51;;;;;;;7.53;6.33;;;4.30;99.90;;;;;;6238327;22;20646;-88
2021/12/06 08:26:19;;;;;;;6.37;4.00;;;4.30;99.90;;;;;;6264038;22;20200;-89
2021/12/06 08:28:46;;;;;;;6.20;4.10;;;4.30;99.90;;;;;;6238054;22;20224;-89
2021/12/06 08:31:13;;;;;;;5.93;5.20;;;4.30;99.90;;;;;;6262991;22;20996;-88
2021/12/06 08:33:39;;;;;;;4.97;4.00;;;4.30;99.90;;;;;;6238513;22;20165;-89
2021/12/06 08:36:07;;;;;;;4.80;3.30;;;4.30;99.90;;;;;;6240671;22;20162;-89
2021/12/06 08:38:35;;;;;;;8.00;3.87;;;4.40;99.90;;;;;;6237800;23;20197;-89
2021/12/06 08:41:06;;;;;;;2.63;2.40;;;4.30;99.90;;;;;;6238476;22;20239;-91
2021/12/06 08:43:32;;;;;;;4.03;3.83;;;4.30;99.90;;;;;;6263587;22;20630;-89
2021/12/06 08:46:05;;;;;;;0.97;0.97;;;4.30;99.90;;;;;;6213765;22;20201;-87
2021/12/06 08:48:33;;;;;;;4.57;4.17;;;4.20;99.90;;;;;;6264860;22;20203;-87
2021/12/06 08:51:06;;;;;;;3.47;2.63;;;4.30;99.90;;;;;;6264680;22;20197;-88
2021/12/06 08:53:32;;;;;;;9.80;6.87;;;4.30;99.90;;;;;;6264425;22;20529;-88
2021/12/06 08:55:58;;;;;;;5.63;5.20;;;4.40;99.90;;;;;;6264207;22;20193;-90
2021/12/06 08:58:24;;;;;;;3.93;3.67;;;4.40;99.90;;;;;;6210217;23;20196;-88
2021/12/06 09:00:50;;;;;;;8.87;3.37;;;4.40;99.90;;;;;;6212104;22;20188;-90
2021/12/06 09:03:16;;;;;;;4.57;4.17;;;4.40;99.90;;;;;;6265226;22;20278;-88
2021/12/06 09:05:45;;;;;;;8.87;6.77;;;4.40;99.90;;;;;;6239882;22;20201;-88
2021/12/06 09:08:11;;;;;;;20.60;5.03;;;4.40;99.90;;;;;;6264941;22;20276;-90
2021/12/06 09:10:37;;;;;;;6.53;5.93;;;4.40;99.90;;;;;;6240261;22;20193;-89
2021/12/06 09:13:05;;;;;;;8.60;4.13;;;4.50;99.90;;;;;;6264718;22;20220;-88
2021/12/06 09:15:32;;;;;;;5.27;3.03;;;4.50;99.90;;;;;;6265919;22;20153;-89
2021/12/06 09:17:58;;;;;;;6.83;2.93;;;4.50;99.90;;;;;;6214452;23;20584;-90
2021/12/06 09:20:29;;;;;;;3.80;3.43;;;4.50;99.90;;;;;;6214093;23;20205;-88
2021/12/06 09:22:55;;;;;;;7.50;4.97;;;4.50;99.90;;;;;;6266710;22;20375;-88
2021/12/06 09:25:21;;;;;;;6.00;3.47;;;4.50;99.90;;;;;;6214511;23;20217;-90
2021/12/06 09:27:47;;;;;;;4.03;3.73;;;4.70;99.90;;;;;;6240247;22;20220;-90
2021/12/06 09:30:18;;;;;;;6.97;5.67;;;4.60;99.90;;;;;;6240495;22;20164;-90
2021/12/06 09:32:45;;;;;;;8.60;4.70;;;4.60;99.90;;;;;;6265564;22;20592;-90
2021/12/06 09:35:18;;;;;;;10.30;3.50;;;4.70;99.90;;;;;;6215022;23;20280;-90
2021/12/06 09:37:44;;;;;;;8.50;4.27;;;4.60;99.90;;;;;;6241395;22;20526;-89
2021/12/06 09:40:14;;;;;;;3.90;3.03;;;4.70;99.90;;;;;;6214492;23;20204;-89
2021/12/06 09:42:42;;;;;;;8.40;5.13;;;4.70;99.90;;;;;;6265837;22;20154;-90
2021/12/06 09:45:11;;;;;;;11.63;4.27;;;4.70;99.90;;;;;;6265117;22;20239;-88
2021/12/06 09:47:37;;;;;;;9.00;3.57;;;4.70;99.90;;;;;;6238769;22;20236;-89
2021/12/06 09:50:07;;;;;;;11.13;6.60;;;4.70;99.90;;;;;;6214658;22;20228;-90
2021/12/06 09:52:33;;;;;;;11.53;5.60;;;4.80;99.90;;;;;;6265040;22;20197;-89
2021/12/06 09:54:59;;;;;;;8.63;4.10;;;4.80;99.90;;;;;;6239281;22;20259;-89
2021/12/06 09:57:28;;;;;;;10.93;5.77;;;4.70;99.90;;;;;;6214492;23;20553;-91
2021/12/06 09:59:54;;;;;;;6.73;6.20;;;4.80;99.90;;;;;;6239094;22;20220;-90
2021/12/06 10:02:21;;;;;;;9.57;8.63;;;4.90;99.90;;;;;;6213667;23;20272;-89
2021/12/06 10:04:53;;;;;;;15.67;5.47;;;4.90;99.90;;;;;;6239188;23;20197;-88
2021/12/06 10:07:22;;;;;;;2.63;2.43;;;4.90;99.90;;;;;;6239520;22;20193;-89
2021/12/06 10:09:50;;;;;;;3.03;2.63;;;4.80;99.90;;;;;;6239222;22;20215;-88
2021/12/06 10:12:17;;;;;;;6.93;5.50;;;4.90;99.90;;;;;;6265269;22;20207;-89
2021/12/06 10:14:44;;;;;;;5.50;4.37;;;4.90;99.90;;;;;;6213759;22;20254;-89
2021/12/06 10:17:11;;;;;;;15.23;5.83;;;4.90;99.90;;;;;;6238894;23;20196;-88
2021/12/06 10:19:37;;;;;;;9.03;4.10;;;4.90;99.90;;;;;;6213596;23;20243;-89
2021/12/06 10:22:05;;;;;;;4.20;3.83;;;5.00;99.90;;;;;;6239327;23;20262;-89
2021/12/06 10:24:31;;;;;;;9.00;5.10;;;5.00;99.90;;;;;;6240034;22;20165;-89
2021/12/06 10:27:09;;;;;;;10.77;6.03;;;5.00;99.90;;;;;;6213270;23;20197;-89
2021/12/06 10:30:03;;;;;;;5.23;4.73;;;5.10;99.90;;;;;;6264698;22;20200;-88
2021/12/06 10:32:36;;;;;;;10.77;6.53;;;5.10;99.90;;;;;;6263823;22;20263;-89
2021/12/06 10:35:11;;;;;;;3.23;2.47;;;5.10;99.90;;;;;;6264009;22;20684;-89
2021/12/06 10:37:54;;;;;;;9.10;5.80;;;5.10;99.90;;;;;;6264547;22;20200;-88
2021/12/06 10:40:30;;;;;;;14.83;7.90;;;5.10;99.90;;;;;;6263977;22;20240;-91
2021/12/06 10:43:00;;;;;;;8.50;5.67;;;5.20;99.90;;;;;;6264760;22;20148;-87
2021/12/06 10:45:33;;;;;;;12.70;6.60;;;5.20;99.90;;;;;;6239515;23;20504;-88
2021/12/06 10:48:17;;;;;;;6.87;4.43;;;5.20;99.90;;;;;;6264064;22;20201;-89
2021/12/06 10:51:00;;;;;;;8.77;6.17;;;5.20;99.90;;;;;;6238548;23;20512;-88
2021/12/06 10:53:34;;;;;;;5.97;3.63;;;5.20;99.90;;;;;;6263644;22;20201;-87
2021/12/06 10:56:00;;;;;;;3.33;3.03;;;5.20;99.90;;;;;;6263553;22;20247;-87
2021/12/06 10:58:32;;;;;;;11.70;5.70;;;5.10;99.90;;;;;;6213232;23;20284;-91
2021/12/06 11:01:03;;;;;;;11.57;6.03;;;5.10;99.90;;;;;;6239255;22;20200;-89
2021/12/06 11:03:37;;;;;;;5.83;3.73;;;5.10;99.90;;;;;;6264078;22;20146;-88
2021/12/06 11:06:20;;;;;;;4.40;3.37;;;5.10;99.90;;;;;;6264351;22;20235;-87
2021/12/06 11:08:49;;;;;;;7.77;5.70;;;5.20;99.90;;;;;;6239263;22;20193;-88
2021/12/06 11:11:19;;;;;;;6.27;4.07;;;5.20;99.90;;;;;;6263383;22;20205;-87
2021/12/06 11:13:48;;;;;;;5.57;5.13;;;5.10;99.90;;;;;;6264000;22;20221;-88
2021/12/06 11:16:19;;;;;;;8.70;5.03;;;5.20;99.90;;;;;;6263366;22;20193;-89
2021/12/06 11:18:46;;;;;;;5.73;5.10;;;5.10;99.90;;;;;;6263853;22;20243;-89
2021/12/06 11:21:16;;;;;;;5.73;4.77;;;5.10;99.90;;;;;;6264798;22;20167;-90
2021/12/06 11:24:25;;;;;;;6.73;5.17;;;5.20;99.90;;;;;;6263845;22;20197;-92
2021/12/06 11:27:02;;;;;;;7.57;4.10;;;5.10;99.90;;;;;;6264440;22;20197;-90
2021/12/06 11:29:36;;;;;;;4.07;3.07;;;5.10;99.90;;;;;;6238559;23;20221;-89
2021/12/06 11:32:04;;;;;;;8.37;2.50;;;5.00;99.90;;;;;;6263812;22;20719;-89
2021/12/06 11:34:37;;;;;;;4.53;2.73;;;5.00;99.90;;;;;;6263628;22;20196;-89
2021/12/06 11:37:09;;;;;;;5.73;3.20;;;4.80;99.90;;;;;;6264514;22;20197;-89
2021/12/06 11:39:35;;;;;;;7.07;2.63;;;4.80;99.90;;;;;;6264179;22;20316;-90
2021/12/06 11:42:01;;;;;;;6.93;3.73;;;4.70;99.90;;;;;;6239077;23;20222;-89
2021/12/06 11:44:31;;;;;;;4.90;4.00;;;4.60;99.90;;;;;;6238064;22;20229;-90
2021/12/06 11:47:04;;;;;;;7.87;6.63;;;4.60;99.90;;;;;;6264001;22;20658;-90
2021/12/06 11:49:40;;;;;;;8.80;4.70;;;4.60;99.90;;;;;;6263853;22;20972;-89
2021/12/06 11:52:10;;;;;;;3.00;2.27;;;4.60;99.90;;;;;;6263464;22;20192;-90
2021/12/06 11:54:42;;;;;;;5.17;4.63;;;4.60;99.90;;;;;;6263235;22;20157;-90
2021/12/06 11:57:15;;;;;;;4.47;4.00;;;4.60;99.90;;;;;;6263951;22;20217;-88
2021/12/06 12:00:07;;;;;;;3.67;3.00;;;4.60;99.90;;;;;;6263256;22;20201;-89
2021/12/06 12:02:38;;;;;;;8.47;4.37;;;4.60;99.90;;;;;;6231930;22;20197;-90
2021/12/06 12:05:10;;;;;;;8.70;4.97;;;4.70;99.90;;;;;;6263192;22;20193;-88
2021/12/06 12:07:53;;;;;;;7.07;4.67;;;4.70;99.90;;;;;;6237745;23;20253;-89
2021/12/06 12:10:38;;;;;;;5.10;4.60;;;4.60;99.90;;;;;;6263295;22;20212;-90
2021/12/06 12:13:06;;;;;;;8.07;5.23;;;4.70;99.90;;;;;;6263137;22;20193;-89
2021/12/06 12:15:34;;;;;;;2.57;2.37;;;4.70;99.90;;;;;;6263887;22;20157;-89
2021/12/06 12:18:00;;;;;;;8.90;5.23;;;4.70;99.90;;;;;;6263399;22;20250;-88
2021/12/06 12:20:27;;;;;;;7.90;6.40;;;4.70;99.90;;;;;;6263180;22;20268;-88
2021/12/06 12:22:56;;;;;;;8.03;4.97;;;4.70;99.90;;;;;;6237920;22;20224;-90
2021/12/06 12:25:33;;;;;;;6.13;5.60;;;4.70;99.90;;;;;;6213263;22;20480;-89
2021/12/06 12:30:36;;;;;;;11.27;6.10;;;4.70;99.90;;;;;;6239876;22;20527;-89
2021/12/06 12:33:05;;;;;;;6.00;4.40;;;4.70;99.90;;;;;;6263266;22;20233;-89
2021/12/06 12:35:32;;;;;;;6.60;4.07;;;4.70;99.90;;;;;;6237959;23;20221;-89
2021/12/06 12:37:59;;;;;;;16.43;7.13;;;4.60;99.90;;;;;;6239476;22;20570;-89
2021/12/06 12:40:47;;;;;;;7.27;4.03;;;4.70;99.90;;;;;;6265358;22;20515;-89
2021/12/06 12:43:17;;;;;;;13.33;5.20;;;4.70;99.90;;;;;;6265110;22;20254;-90
2021/12/06 12:45:50;;;;;;;5.10;4.53;;;4.60;99.90;;;;;;6265660;22;20165;-89
2021/12/06 12:48:23;;;;;;;8.00;5.57;;;4.70;99.90;;;;;;6265731;22;20470;-88
2021/12/06 12:51:11;;;;;;;5.73;4.13;;;4.70;99.90;;;;;;6241174;22;20642;-89
2021/12/06 12:54:03;;;;;;;8.87;4.90;;;4.70;99.90;;;;;;6264868;22;20538;-88
2021/12/06 12:56:29;;;;;;;7.93;3.13;;;4.70;99.90;;;;;;6233857;23;20232;-90
2021/12/06 12:58:54;;;;;;;7.53;3.77;;;4.70;99.90;;;;;;6239263;23;20212;-89
2021/12/06 13:01:24;;;;;;;4.83;4.50;;;4.70;99.90;;;;;;6239741;22;20193;-89
2021/12/06 13:03:54;;;;;;;8.20;3.70;;;4.70;99.90;;;;;;6264446;22;20158;-91
2021/12/06 13:06:26;;;;;;;5.90;5.37;;;4.80;99.90;;;;;;6265915;22;20598;-89
2021/12/06 13:09:03;;;;;;;6.30;4.80;;;4.80;99.90;;;;;;6239177;23;20287;-89
2021/12/06 13:11:56;;;;;;;10.93;3.87;;;4.80;99.90;;;;;;6238322;23;20224;-89
2021/12/06 13:14:30;;;;;;;4.40;2.93;;;4.90;99.90;;;;;;6238039;22;20449;-89
2021/12/06 13:17:02;;;;;;;15.17;7.23;;;4.90;99.90;;;;;;6238236;23;20204;-89
2021/12/06 13:19:56;;;;;;;8.07;5.23;;;5.00;99.90;;;;;;6263575;22;20204;-89